ADDS METAR Data INFO
IDs: Format: Raw Decoded Include TAF

Data at: 1851 UTC 16 Dec 2017

METAR for:KPGD (Punta Gorda/Charlott, FL, US)
Text:KPGD 161753Z 08005KT 10SM CLR 26/14 A3020 RMK AO2 SLP227 T02560139 10256 20111 58021
Temperature: 25.6°C ( 78°F)
Dewpoint: 13.9°C ( 57°F) [RH = 48%]
Pressure (altimeter):30.20 inches Hg (1022.8 mb) [Sea level pressure: 1022.7 mb]
Winds:from the E (80 degrees) at 6 MPH (5 knots; 2.6 m/s)
Visibility:10 or more sm (16+ km)
Ceiling:at least 12,000 feet AGL
Clouds:sky clear below 12,000 feet AGL